sensor_id;sensor_type;location;lat;lon;timestamp;P1;durP1;ratioP1;P2;durP2;ratioP2
46675;SDS011;32412;51.478;5.694;2023-05-13T00:00:44;10.02;;;8.07;;
46675;SDS011;32412;51.478;5.694;2023-05-13T00:03:10;11.88;;;8.63;;
46675;SDS011;32412;51.478;5.694;2023-05-13T00:05:36;10.45;;;8.18;;
46675;SDS011;32412;51.478;5.694;2023-05-13T00:08:01;13.45;;;7.97;;
46675;SDS011;32412;51.478;5.694;2023-05-13T00:10:36;10.85;;;8.02;;
46675;SDS011;32412;51.478;5.694;2023-05-13T00:13:01;14.07;;;8.02;;
46675;SDS011;32412;51.478;5.694;2023-05-13T00:15:27;9.98;;;8.27;;
46675;SDS011;32412;51.478;5.694;2023-05-13T00:17:53;9.45;;;7.63;;
46675;SDS011;32412;51.478;5.694;2023-05-13T00:20:19;8.95;;;8.00;;
46675;SDS011;32412;51.478;5.694;2023-05-13T00:22:45;9.55;;;8.52;;
46675;SDS011;32412;51.478;5.694;2023-05-13T00:25:10;10.27;;;8.35;;
46675;SDS011;32412;51.478;5.694;2023-05-13T00:27:36;9.10;;;7.65;;
46675;SDS011;32412;51.478;5.694;2023-05-13T00:30:02;9.73;;;8.13;;
46675;SDS011;32412;51.478;5.694;2023-05-13T00:32:29;9.88;;;7.38;;
46675;SDS011;32412;51.478;5.694;2023-05-13T00:34:55;9.38;;;8.27;;
46675;SDS011;32412;51.478;5.694;2023-05-13T00:37:21;11.25;;;7.78;;
46675;SDS011;32412;51.478;5.694;2023-05-13T00:39:47;16.02;;;8.90;;
46675;SDS011;32412;51.478;5.694;2023-05-13T00:42:13;10.27;;;7.95;;
46675;SDS011;32412;51.478;5.694;2023-05-13T00:44:39;11.77;;;8.30;;
46675;SDS011;32412;51.478;5.694;2023-05-13T00:47:05;9.18;;;7.63;;
46675;SDS011;32412;51.478;5.694;2023-05-13T00:49:31;8.63;;;7.75;;
46675;SDS011;32412;51.478;5.694;2023-05-13T00:51:58;12.48;;;8.30;;
46675;SDS011;32412;51.478;5.694;2023-05-13T00:54:24;11.10;;;8.38;;
46675;SDS011;32412;51.478;5.694;2023-05-13T00:56:50;12.05;;;8.05;;
46675;SDS011;32412;51.478;5.694;2023-05-13T00:59:21;11.18;;;8.13;;
46675;SDS011;32412;51.478;5.694;2023-05-13T01:12:20;9.15;;;8.20;;
46675;SDS011;32412;51.478;5.694;2023-05-13T01:15:05;10.05;;;8.40;;
46675;SDS011;32412;51.478;5.694;2023-05-13T01:20:23;13.05;;;8.20;;
46675;SDS011;32412;51.478;5.694;2023-05-13T01:22:50;14.35;;;8.68;;
46675;SDS011;32412;51.478;5.694;2023-05-13T01:25:16;11.98;;;8.45;;
46675;SDS011;32412;51.478;5.694;2023-05-13T01:27:42;9.23;;;8.27;;
46675;SDS011;32412;51.478;5.694;2023-05-13T01:30:08;11.13;;;8.43;;
46675;SDS011;32412;51.478;5.694;2023-05-13T01:32:35;9.95;;;8.43;;
46675;SDS011;32412;51.478;5.694;2023-05-13T01:35:02;10.48;;;8.98;;
46675;SDS011;32412;51.478;5.694;2023-05-13T01:37:28;12.32;;;9.55;;
46675;SDS011;32412;51.478;5.694;2023-05-13T01:39:57;12.40;;;9.55;;
46675;SDS011;32412;51.478;5.694;2023-05-13T01:42:23;10.48;;;8.75;;
46675;SDS011;32412;51.478;5.694;2023-05-13T01:44:50;11.48;;;9.23;;
46675;SDS011;32412;51.478;5.694;2023-05-13T01:47:16;13.18;;;10.00;;
46675;SDS011;32412;51.478;5.694;2023-05-13T01:49:42;12.20;;;9.32;;
46675;SDS011;32412;51.478;5.694;2023-05-13T01:52:08;11.05;;;8.95;;
46675;SDS011;32412;51.478;5.694;2023-05-13T01:54:34;15.05;;;10.50;;
46675;SDS011;32412;51.478;5.694;2023-05-13T01:57:03;12.00;;;9.57;;
46675;SDS011;32412;51.478;5.694;2023-05-13T01:59:29;12.25;;;9.60;;
46675;SDS011;32412;51.478;5.694;2023-05-13T02:01:54;15.38;;;10.77;;
46675;SDS011;32412;51.478;5.694;2023-05-13T02:04:20;13.02;;;10.85;;
46675;SDS011;32412;51.478;5.694;2023-05-13T02:06:46;13.27;;;11.10;;
46675;SDS011;32412;51.478;5.694;2023-05-13T02:09:12;13.43;;;11.65;;
46675;SDS011;32412;51.478;5.694;2023-05-13T02:11:38;13.40;;;10.85;;
46675;SDS011;32412;51.478;5.694;2023-05-13T02:14:07;15.45;;;12.25;;
46675;SDS011;32412;51.478;5.694;2023-05-13T02:16:33;16.42;;;12.45;;
46675;SDS011;32412;51.478;5.694;2023-05-13T02:19:01;14.30;;;12.32;;
46675;SDS011;32412;51.478;5.694;2023-05-13T02:21:27;15.50;;;12.10;;
46675;SDS011;32412;51.478;5.694;2023-05-13T02:23:53;16.92;;;12.30;;
46675;SDS011;32412;51.478;5.694;2023-05-13T02:26:19;19.52;;;12.57;;
46675;SDS011;32412;51.478;5.694;2023-05-13T02:28:45;14.98;;;13.18;;
46675;SDS011;32412;51.478;5.694;2023-05-13T02:31:10;15.90;;;12.80;;
46675;SDS011;32412;51.478;5.694;2023-05-13T02:33:36;20.00;;;13.52;;
46675;SDS011;32412;51.478;5.694;2023-05-13T02:36:01;15.25;;;12.75;;
46675;SDS011;32412;51.478;5.694;2023-05-13T02:38:27;14.48;;;12.75;;
46675;SDS011;32412;51.478;5.694;2023-05-13T02:40:53;16.48;;;12.63;;
46675;SDS011;32412;51.478;5.694;2023-05-13T02:43:18;19.67;;;13.45;;
46675;SDS011;32412;51.478;5.694;2023-05-13T02:45:44;16.80;;;13.50;;
46675;SDS011;32412;51.478;5.694;2023-05-13T02:48:10;20.27;;;13.43;;
46675;SDS011;32412;51.478;5.694;2023-05-13T02:50:36;17.05;;;13.80;;
46675;SDS011;32412;51.478;5.694;2023-05-13T02:53:03;16.85;;;13.98;;
46675;SDS011;32412;51.478;5.694;2023-05-13T02:55:28;17.70;;;13.43;;
46675;SDS011;32412;51.478;5.694;2023-05-13T02:57:54;16.85;;;13.90;;
46675;SDS011;32412;51.478;5.694;2023-05-13T03:00:20;18.13;;;13.57;;
46675;SDS011;32412;51.478;5.694;2023-05-13T03:02:46;17.13;;;12.50;;
46675;SDS011;32412;51.478;5.694;2023-05-13T03:05:12;34.30;;;13.02;;
46675;SDS011;32412;51.478;5.694;2023-05-13T03:07:37;14.50;;;11.75;;
46675;SDS011;32412;51.478;5.694;2023-05-13T03:10:03;17.63;;;11.82;;
46675;SDS011;32412;51.478;5.694;2023-05-13T03:12:29;18.52;;;12.35;;
46675;SDS011;32412;51.478;5.694;2023-05-13T03:14:55;17.42;;;12.95;;
46675;SDS011;32412;51.478;5.694;2023-05-13T03:17:21;20.77;;;12.07;;
46675;SDS011;32412;51.478;5.694;2023-05-13T03:19:47;17.65;;;12.45;;
46675;SDS011;32412;51.478;5.694;2023-05-13T03:22:12;17.00;;;12.63;;
46675;SDS011;32412;51.478;5.694;2023-05-13T03:24:38;15.45;;;11.48;;
46675;SDS011;32412;51.478;5.694;2023-05-13T03:27:04;16.50;;;12.68;;
46675;SDS011;32412;51.478;5.694;2023-05-13T03:29:29;18.90;;;12.18;;
46675;SDS011;32412;51.478;5.694;2023-05-13T03:31:55;16.23;;;11.95;;
46675;SDS011;32412;51.478;5.694;2023-05-13T03:34:21;20.48;;;13.52;;
46675;SDS011;32412;51.478;5.694;2023-05-13T03:36:46;17.42;;;12.93;;
46675;SDS011;32412;51.478;5.694;2023-05-13T03:39:12;21.05;;;13.40;;
46675;SDS011;32412;51.478;5.694;2023-05-13T03:41:37;20.48;;;13.23;;
46675;SDS011;32412;51.478;5.694;2023-05-13T03:44:03;18.17;;;13.05;;
46675;SDS011;32412;51.478;5.694;2023-05-13T03:46:29;15.80;;;12.52;;
46675;SDS011;32412;51.478;5.694;2023-05-13T03:48:54;17.35;;;12.73;;
46675;SDS011;32412;51.478;5.694;2023-05-13T03:51:21;21.30;;;13.43;;
46675;SDS011;32412;51.478;5.694;2023-05-13T03:53:46;17.27;;;12.70;;
46675;SDS011;32412;51.478;5.694;2023-05-13T03:56:12;16.38;;;12.38;;
46675;SDS011;32412;51.478;5.694;2023-05-13T03:58:38;18.20;;;13.55;;
46675;SDS011;32412;51.478;5.694;2023-05-13T04:01:05;18.13;;;13.55;;
46675;SDS011;32412;51.478;5.694;2023-05-13T04:03:31;18.30;;;13.02;;
46675;SDS011;32412;51.478;5.694;2023-05-13T04:05:58;18.48;;;14.40;;
46675;SDS011;32412;51.478;5.694;2023-05-13T04:08:24;16.75;;;13.30;;
46675;SDS011;32412;51.478;5.694;2023-05-13T04:10:50;21.38;;;14.05;;
46675;SDS011;32412;51.478;5.694;2023-05-13T04:13:16;29.98;;;14.30;;
46675;SDS011;32412;51.478;5.694;2023-05-13T04:15:41;88.30;;;16.00;;
46675;SDS011;32412;51.478;5.694;2023-05-13T04:18:07;19.55;;;13.35;;
46675;SDS011;32412;51.478;5.694;2023-05-13T04:20:32;40.45;;;14.48;;
46675;SDS011;32412;51.478;5.694;2023-05-13T04:22:58;23.88;;;13.35;;
46675;SDS011;32412;51.478;5.694;2023-05-13T04:25:25;21.58;;;13.73;;
46675;SDS011;32412;51.478;5.694;2023-05-13T04:27:51;18.65;;;14.52;;
46675;SDS011;32412;51.478;5.694;2023-05-13T04:30:16;30.20;;;15.50;;
46675;SDS011;32412;51.478;5.694;2023-05-13T04:32:42;21.02;;;14.25;;
46675;SDS011;32412;51.478;5.694;2023-05-13T04:35:08;20.45;;;13.43;;
46675;SDS011;32412;51.478;5.694;2023-05-13T04:37:33;19.67;;;14.13;;
46675;SDS011;32412;51.478;5.694;2023-05-13T04:39:59;20.95;;;15.00;;
46675;SDS011;32412;51.478;5.694;2023-05-13T04:42:25;27.70;;;14.57;;
46675;SDS011;32412;51.478;5.694;2023-05-13T04:44:51;21.42;;;14.40;;
46675;SDS011;32412;51.478;5.694;2023-05-13T04:47:16;22.75;;;14.65;;
46675;SDS011;32412;51.478;5.694;2023-05-13T04:49:42;24.05;;;13.75;;
46675;SDS011;32412;51.478;5.694;2023-05-13T04:52:08;17.20;;;13.55;;
46675;SDS011;32412;51.478;5.694;2023-05-13T04:54:36;18.15;;;14.02;;
46675;SDS011;32412;51.478;5.694;2023-05-13T04:57:03;20.10;;;14.25;;
46675;SDS011;32412;51.478;5.694;2023-05-13T04:59:30;21.63;;;14.40;;
46675;SDS011;32412;51.478;5.694;2023-05-13T05:01:55;19.33;;;13.88;;
46675;SDS011;32412;51.478;5.694;2023-05-13T05:04:21;20.35;;;13.85;;
46675;SDS011;32412;51.478;5.694;2023-05-13T05:06:47;19.27;;;12.38;;
46675;SDS011;32412;51.478;5.694;2023-05-13T05:09:12;15.02;;;12.32;;
46675;SDS011;32412;51.478;5.694;2023-05-13T05:11:38;16.98;;;12.43;;
46675;SDS011;32412;51.478;5.694;2023-05-13T05:14:04;16.02;;;12.48;;
46675;SDS011;32412;51.478;5.694;2023-05-13T05:16:30;16.30;;;12.82;;
46675;SDS011;32412;51.478;5.694;2023-05-13T05:18:55;15.32;;;11.77;;
46675;SDS011;32412;51.478;5.694;2023-05-13T05:21:21;19.92;;;12.05;;
46675;SDS011;32412;51.478;5.694;2023-05-13T05:23:47;16.17;;;11.45;;
46675;SDS011;32412;51.478;5.694;2023-05-13T05:26:13;15.23;;;11.75;;
46675;SDS011;32412;51.478;5.694;2023-05-13T05:28:40;16.05;;;11.35;;
46675;SDS011;32412;51.478;5.694;2023-05-13T05:31:07;13.43;;;10.93;;
46675;SDS011;32412;51.478;5.694;2023-05-13T05:33:33;15.85;;;11.40;;
46675;SDS011;32412;51.478;5.694;2023-05-13T05:36:00;14.07;;;10.32;;
46675;SDS011;32412;51.478;5.694;2023-05-13T05:38:25;17.80;;;11.63;;
46675;SDS011;32412;51.478;5.694;2023-05-13T05:40:51;15.13;;;10.73;;
46675;SDS011;32412;51.478;5.694;2023-05-13T05:43:17;14.05;;;10.60;;
46675;SDS011;32412;51.478;5.694;2023-05-13T05:45:43;18.67;;;11.00;;
46675;SDS011;32412;51.478;5.694;2023-05-13T05:48:09;14.23;;;10.85;;
46675;SDS011;32412;51.478;5.694;2023-05-13T05:50:35;15.63;;;11.52;;
46675;SDS011;32412;51.478;5.694;2023-05-13T05:53:01;16.90;;;10.35;;
46675;SDS011;32412;51.478;5.694;2023-05-13T05:55:27;15.43;;;11.20;;
46675;SDS011;32412;51.478;5.694;2023-05-13T05:57:56;14.52;;;11.57;;
46675;SDS011;32412;51.478;5.694;2023-05-13T06:00:22;14.32;;;10.45;;
46675;SDS011;32412;51.478;5.694;2023-05-13T06:02:48;13.60;;;10.27;;
46675;SDS011;32412;51.478;5.694;2023-05-13T06:05:14;12.73;;;10.02;;
46675;SDS011;32412;51.478;5.694;2023-05-13T06:07:40;14.63;;;10.57;;
46675;SDS011;32412;51.478;5.694;2023-05-13T06:10:06;14.45;;;10.77;;
46675;SDS011;32412;51.478;5.694;2023-05-13T06:12:32;11.18;;;9.35;;
46675;SDS011;32412;51.478;5.694;2023-05-13T06:14:58;12.13;;;9.45;;
46675;SDS011;32412;51.478;5.694;2023-05-13T06:17:24;13.15;;;9.90;;
46675;SDS011;32412;51.478;5.694;2023-05-13T06:19:50;12.65;;;9.77;;
46675;SDS011;32412;51.478;5.694;2023-05-13T06:22:16;12.93;;;9.23;;
46675;SDS011;32412;51.478;5.694;2023-05-13T06:24:41;13.20;;;9.60;;
46675;SDS011;32412;51.478;5.694;2023-05-13T06:27:11;11.20;;;9.25;;
46675;SDS011;32412;51.478;5.694;2023-05-13T06:29:37;12.32;;;9.82;;
46675;SDS011;32412;51.478;5.694;2023-05-13T06:32:03;10.70;;;9.18;;
46675;SDS011;32412;51.478;5.694;2023-05-13T06:34:29;13.05;;;9.88;;
46675;SDS011;32412;51.478;5.694;2023-05-13T06:36:55;12.57;;;9.77;;
46675;SDS011;32412;51.478;5.694;2023-05-13T06:39:21;13.55;;;9.38;;
46675;SDS011;32412;51.478;5.694;2023-05-13T06:41:46;13.20;;;9.98;;
46675;SDS011;32412;51.478;5.694;2023-05-13T06:44:12;12.88;;;9.73;;
46675;SDS011;32412;51.478;5.694;2023-05-13T06:46:37;13.88;;;10.57;;
46675;SDS011;32412;51.478;5.694;2023-05-13T06:49:03;13.43;;;9.63;;
46675;SDS011;32412;51.478;5.694;2023-05-13T06:51:29;12.13;;;9.70;;
46675;SDS011;32412;51.478;5.694;2023-05-13T06:53:56;12.20;;;9.60;;
46675;SDS011;32412;51.478;5.694;2023-05-13T06:56:22;14.20;;;10.32;;
46675;SDS011;32412;51.478;5.694;2023-05-13T06:58:51;14.52;;;10.23;;
46675;SDS011;32412;51.478;5.694;2023-05-13T07:01:17;14.15;;;9.63;;
46675;SDS011;32412;51.478;5.694;2023-05-13T07:03:43;14.25;;;10.35;;
46675;SDS011;32412;51.478;5.694;2023-05-13T07:06:09;11.60;;;10.23;;
46675;SDS011;32412;51.478;5.694;2023-05-13T07:08:35;12.15;;;9.85;;
46675;SDS011;32412;51.478;5.694;2023-05-13T07:11:01;12.35;;;9.80;;
46675;SDS011;32412;51.478;5.694;2023-05-13T07:13:26;12.05;;;10.48;;
46675;SDS011;32412;51.478;5.694;2023-05-13T07:15:53;13.60;;;9.93;;
46675;SDS011;32412;51.478;5.694;2023-05-13T07:18:19;12.77;;;10.02;;
46675;SDS011;32412;51.478;5.694;2023-05-13T07:20:45;14.18;;;10.68;;
46675;SDS011;32412;51.478;5.694;2023-05-13T07:23:10;14.93;;;10.30;;
46675;SDS011;32412;51.478;5.694;2023-05-13T07:25:36;15.52;;;10.35;;
46675;SDS011;32412;51.478;5.694;2023-05-13T07:28:02;15.52;;;10.30;;
46675;SDS011;32412;51.478;5.694;2023-05-13T07:30:28;12.30;;;10.32;;
46675;SDS011;32412;51.478;5.694;2023-05-13T07:32:54;12.38;;;10.43;;
46675;SDS011;32412;51.478;5.694;2023-05-13T07:35:19;14.90;;;10.38;;
46675;SDS011;32412;51.478;5.694;2023-05-13T07:37:45;14.82;;;9.90;;
46675;SDS011;32412;51.478;5.694;2023-05-13T07:40:11;14.57;;;10.80;;
46675;SDS011;32412;51.478;5.694;2023-05-13T07:42:38;15.20;;;10.60;;
46675;SDS011;32412;51.478;5.694;2023-05-13T07:45:04;45.08;;;11.93;;
46675;SDS011;32412;51.478;5.694;2023-05-13T07:47:31;55.97;;;12.00;;
46675;SDS011;32412;51.478;5.694;2023-05-13T07:49:57;14.27;;;10.73;;
46675;SDS011;32412;51.478;5.694;2023-05-13T07:52:23;13.10;;;10.73;;
46675;SDS011;32412;51.478;5.694;2023-05-13T07:54:50;14.40;;;10.70;;
46675;SDS011;32412;51.478;5.694;2023-05-13T07:57:15;12.48;;;9.93;;
46675;SDS011;32412;51.478;5.694;2023-05-13T07:59:41;11.02;;;9.82;;
46675;SDS011;32412;51.478;5.694;2023-05-13T08:02:06;12.50;;;10.20;;
46675;SDS011;32412;51.478;5.694;2023-05-13T08:04:32;18.27;;;10.63;;
46675;SDS011;32412;51.478;5.694;2023-05-13T08:06:59;13.55;;;10.43;;
46675;SDS011;32412;51.478;5.694;2023-05-13T08:09:26;14.65;;;10.80;;
46675;SDS011;32412;51.478;5.694;2023-05-13T08:11:51;13.48;;;10.80;;
46675;SDS011;32412;51.478;5.694;2023-05-13T08:14:18;15.63;;;10.10;;
46675;SDS011;32412;51.478;5.694;2023-05-13T08:16:44;13.02;;;10.50;;
46675;SDS011;32412;51.478;5.694;2023-05-13T08:19:12;13.75;;;10.38;;
46675;SDS011;32412;51.478;5.694;2023-05-13T08:21:38;14.43;;;10.63;;
46675;SDS011;32412;51.478;5.694;2023-05-13T08:24:04;18.27;;;10.05;;
46675;SDS011;32412;51.478;5.694;2023-05-13T08:26:30;12.63;;;9.35;;
46675;SDS011;32412;51.478;5.694;2023-05-13T08:28:56;16.30;;;10.18;;
46675;SDS011;32412;51.478;5.694;2023-05-13T08:31:22;19.20;;;10.55;;
46675;SDS011;32412;51.478;5.694;2023-05-13T08:33:49;12.35;;;10.75;;
46675;SDS011;32412;51.478;5.694;2023-05-13T08:36:15;13.95;;;10.18;;
46675;SDS011;32412;51.478;5.694;2023-05-13T08:38:41;14.00;;;10.30;;
46675;SDS011;32412;51.478;5.694;2023-05-13T08:41:08;11.35;;;9.50;;
46675;SDS011;32412;51.478;5.694;2023-05-13T08:43:36;12.85;;;9.30;;
46675;SDS011;32412;51.478;5.694;2023-05-13T08:46:03;11.35;;;10.15;;
46675;SDS011;32412;51.478;5.694;2023-05-13T08:48:33;12.10;;;9.52;;
46675;SDS011;32412;51.478;5.694;2023-05-13T08:51:00;14.80;;;9.90;;
46675;SDS011;32412;51.478;5.694;2023-05-13T08:53:26;11.48;;;9.75;;
46675;SDS011;32412;51.478;5.694;2023-05-13T08:55:53;12.00;;;9.65;;
46675;SDS011;32412;51.478;5.694;2023-05-13T08:58:19;12.80;;;10.32;;
46675;SDS011;32412;51.478;5.694;2023-05-13T09:00:44;13.23;;;9.55;;
46675;SDS011;32412;51.478;5.694;2023-05-13T09:03:12;12.57;;;10.07;;
46675;SDS011;32412;51.478;5.694;2023-05-13T09:05:38;14.10;;;10.10;;
46675;SDS011;32412;51.478;5.694;2023-05-13T09:08:06;13.05;;;10.13;;
46675;SDS011;32412;51.478;5.694;2023-05-13T09:10:33;12.50;;;10.07;;
46675;SDS011;32412;51.478;5.694;2023-05-13T09:12:59;11.07;;;9.15;;
46675;SDS011;32412;51.478;5.694;2023-05-13T09:15:26;13.57;;;9.77;;
46675;SDS011;32412;51.478;5.694;2023-05-13T09:17:53;11.27;;;10.10;;
46675;SDS011;32412;51.478;5.694;2023-05-13T09:20:26;14.23;;;11.07;;
46675;SDS011;32412;51.478;5.694;2023-05-13T09:25:22;13.07;;;9.65;;
46675;SDS011;32412;51.478;5.694;2023-05-13T09:27:52;11.35;;;9.20;;
46675;SDS011;32412;51.478;5.694;2023-05-13T09:30:35;12.80;;;8.82;;
46675;SDS011;32412;51.478;5.694;2023-05-13T09:33:16;10.90;;;8.32;;
46675;SDS011;32412;51.478;5.694;2023-05-13T09:35:52;10.25;;;9.13;;
46675;SDS011;32412;51.478;5.694;2023-05-13T09:40:56;13.32;;;8.45;;
46675;SDS011;32412;51.478;5.694;2023-05-13T09:43:25;10.30;;;8.57;;
46675;SDS011;32412;51.478;5.694;2023-05-13T09:45:56;9.85;;;8.15;;
46675;SDS011;32412;51.478;5.694;2023-05-13T09:48:26;9.93;;;8.07;;
46675;SDS011;32412;51.478;5.694;2023-05-13T09:50:53;8.32;;;7.53;;
46675;SDS011;32412;51.478;5.694;2023-05-13T09:53:21;11.38;;;7.50;;
46675;SDS011;32412;51.478;5.694;2023-05-13T09:55:47;8.88;;;7.97;;
46675;SDS011;32412;51.478;5.694;2023-05-13T09:58:13;11.10;;;7.40;;
46675;SDS011;32412;51.478;5.694;2023-05-13T10:00:40;9.35;;;7.18;;
46675;SDS011;32412;51.478;5.694;2023-05-13T10:03:07;9.38;;;7.68;;
46675;SDS011;32412;51.478;5.694;2023-05-13T10:05:33;7.50;;;6.50;;
46675;SDS011;32412;51.478;5.694;2023-05-13T10:07:59;8.10;;;5.70;;
46675;SDS011;32412;51.478;5.694;2023-05-13T10:10:31;11.95;;;5.70;;
46675;SDS011;32412;51.478;5.694;2023-05-13T10:12:59;8.30;;;5.13;;
46675;SDS011;32412;51.478;5.694;2023-05-13T10:15:31;7.72;;;5.53;;
46675;SDS011;32412;51.478;5.694;2023-05-13T10:17:58;5.45;;;4.70;;
46675;SDS011;32412;51.478;5.694;2023-05-13T10:20:24;6.97;;;4.95;;
46675;SDS011;32412;51.478;5.694;2023-05-13T10:22:53;5.93;;;4.53;;
46675;SDS011;32412;51.478;5.694;2023-05-13T10:25:19;7.53;;;5.05;;
46675;SDS011;32412;51.478;5.694;2023-05-13T10:27:46;4.32;;;3.92;;
46675;SDS011;32412;51.478;5.694;2023-05-13T10:30:12;7.95;;;5.43;;
46675;SDS011;32412;51.478;5.694;2023-05-13T10:32:40;8.23;;;5.22;;
46675;SDS011;32412;51.478;5.694;2023-05-13T10:35:07;7.03;;;5.03;;
46675;SDS011;32412;51.478;5.694;2023-05-13T10:37:53;8.68;;;5.07;;
46675;SDS011;32412;51.478;5.694;2023-05-13T10:43:19;4.57;;;4.18;;
46675;SDS011;32412;51.478;5.694;2023-05-13T10:45:59;5.90;;;3.92;;
46675;SDS011;32412;51.478;5.694;2023-05-13T10:51:12;5.55;;;3.97;;
46675;SDS011;32412;51.478;5.694;2023-05-13T10:56:10;7.95;;;4.65;;
46675;SDS011;32412;51.478;5.694;2023-05-13T10:58:36;8.82;;;4.80;;
46675;SDS011;32412;51.478;5.694;2023-05-13T11:01:15;6.55;;;4.60;;
46675;SDS011;32412;51.478;5.694;2023-05-13T11:03:52;5.03;;;4.50;;
46675;SDS011;32412;51.478;5.694;2023-05-13T11:06:20;6.45;;;4.65;;
46675;SDS011;32412;51.478;5.694;2023-05-13T11:08:51;4.40;;;4.00;;
46675;SDS011;32412;51.478;5.694;2023-05-13T11:11:23;5.50;;;4.00;;
46675;SDS011;32412;51.478;5.694;2023-05-13T11:13:55;4.93;;;4.20;;
46675;SDS011;32412;51.478;5.694;2023-05-13T11:16:29;5.75;;;4.30;;
46675;SDS011;32412;51.478;5.694;2023-05-13T11:18:55;4.43;;;4.00;;
46675;SDS011;32412;51.478;5.694;2023-05-13T11:21:32;7.20;;;4.60;;
46675;SDS011;32412;51.478;5.694;2023-05-13T11:24:01;5.90;;;3.63;;
46675;SDS011;32412;51.478;5.694;2023-05-13T11:26:45;6.53;;;3.38;;
46675;SDS011;32412;51.478;5.694;2023-05-13T11:29:29;9.13;;;3.10;;
46675;SDS011;32412;51.478;5.694;2023-05-13T11:31:54;5.82;;;4.10;;
46675;SDS011;32412;51.478;5.694;2023-05-13T11:34:22;4.88;;;3.45;;
46675;SDS011;32412;51.478;5.694;2023-05-13T11:36:49;7.07;;;3.45;;
46675;SDS011;32412;51.478;5.694;2023-05-13T11:39:20;4.43;;;3.38;;
46675;SDS011;32412;51.478;5.694;2023-05-13T11:41:50;3.60;;;3.30;;
46675;SDS011;32412;51.478;5.694;2023-05-13T11:44:20;5.88;;;3.72;;
46675;SDS011;32412;51.478;5.694;2023-05-13T11:46:51;6.55;;;3.40;;
46675;SDS011;32412;51.478;5.694;2023-05-13T11:49:34;5.90;;;4.00;;
46675;SDS011;32412;51.478;5.694;2023-05-13T11:52:11;4.35;;;3.95;;
46675;SDS011;32412;51.478;5.694;2023-05-13T11:54:46;4.90;;;4.18;;
46675;SDS011;32412;51.478;5.694;2023-05-13T11:57:29;5.45;;;3.78;;
46675;SDS011;32412;51.478;5.694;2023-05-13T12:02:36;5.72;;;4.47;;
46675;SDS011;32412;51.478;5.694;2023-05-13T12:05:04;5.53;;;4.80;;
46675;SDS011;32412;51.478;5.694;2023-05-13T12:07:35;7.60;;;3.70;;
46675;SDS011;32412;51.478;5.694;2023-05-13T12:10:02;4.40;;;4.00;;
46675;SDS011;32412;51.478;5.694;2023-05-13T12:12:31;4.57;;;3.65;;
46675;SDS011;32412;51.478;5.694;2023-05-13T12:14:58;4.80;;;4.05;;
46675;SDS011;32412;51.478;5.694;2023-05-13T12:17:32;6.53;;;4.38;;
46675;SDS011;32412;51.478;5.694;2023-05-13T12:20:18;4.55;;;3.88;;
46675;SDS011;32412;51.478;5.694;2023-05-13T12:28:11;13.02;;;4.15;;
46675;SDS011;32412;51.478;5.694;2023-05-13T12:30:51;6.00;;;4.35;;
46675;SDS011;32412;51.478;5.694;2023-05-13T12:33:21;5.32;;;3.75;;
46675;SDS011;32412;51.478;5.694;2023-05-13T12:35:48;3.85;;;3.42;;
46675;SDS011;32412;51.478;5.694;2023-05-13T12:38:24;3.97;;;3.65;;
46675;SDS011;32412;51.478;5.694;2023-05-13T12:40:50;5.13;;;3.33;;
46675;SDS011;32412;51.478;5.694;2023-05-13T12:43:17;4.70;;;3.72;;
46675;SDS011;32412;51.478;5.694;2023-05-13T12:45:44;7.68;;;3.47;;
46675;SDS011;32412;51.478;5.694;2023-05-13T12:48:11;7.70;;;3.13;;
46675;SDS011;32412;51.478;5.694;2023-05-13T12:50:38;3.90;;;3.22;;
46675;SDS011;32412;51.478;5.694;2023-05-13T12:53:04;3.67;;;3.30;;
46675;SDS011;32412;51.478;5.694;2023-05-13T12:55:30;5.22;;;3.47;;
46675;SDS011;32412;51.478;5.694;2023-05-13T12:57:58;8.10;;;3.90;;
46675;SDS011;32412;51.478;5.694;2023-05-13T13:00:25;3.80;;;2.90;;
46675;SDS011;32412;51.478;5.694;2023-05-13T13:02:51;6.07;;;2.90;;
46675;SDS011;32412;51.478;5.694;2023-05-13T13:05:21;7.22;;;3.50;;
46675;SDS011;32412;51.478;5.694;2023-05-13T13:07:47;5.38;;;3.38;;
46675;SDS011;32412;51.478;5.694;2023-05-13T13:10:13;5.43;;;3.30;;
46675;SDS011;32412;51.478;5.694;2023-05-13T13:12:39;6.40;;;3.60;;
46675;SDS011;32412;51.478;5.694;2023-05-13T13:15:05;5.30;;;3.50;;
46675;SDS011;32412;51.478;5.694;2023-05-13T13:17:31;6.28;;;3.47;;
46675;SDS011;32412;51.478;5.694;2023-05-13T13:19:57;3.20;;;2.95;;
46675;SDS011;32412;51.478;5.694;2023-05-13T13:22:23;5.68;;;3.50;;
46675;SDS011;32412;51.478;5.694;2023-05-13T13:24:49;9.27;;;3.50;;
46675;SDS011;32412;51.478;5.694;2023-05-13T13:27:15;4.20;;;3.22;;
46675;SDS011;32412;51.478;5.694;2023-05-13T13:29:41;4.82;;;3.00;;
46675;SDS011;32412;51.478;5.694;2023-05-13T13:32:06;5.40;;;3.05;;
46675;SDS011;32412;51.478;5.694;2023-05-13T13:34:32;4.55;;;3.20;;
46675;SDS011;32412;51.478;5.694;2023-05-13T13:36:58;8.55;;;3.22;;
46675;SDS011;32412;51.478;5.694;2023-05-13T13:39:23;6.32;;;2.83;;
46675;SDS011;32412;51.478;5.694;2023-05-13T13:41:50;4.13;;;3.00;;
46675;SDS011;32412;51.478;5.694;2023-05-13T13:44:16;4.68;;;3.22;;
46675;SDS011;32412;51.478;5.694;2023-05-13T13:46:41;8.00;;;2.83;;
46675;SDS011;32412;51.478;5.694;2023-05-13T13:49:07;4.05;;;3.00;;
46675;SDS011;32412;51.478;5.694;2023-05-13T13:51:32;4.22;;;3.08;;
46675;SDS011;32412;51.478;5.694;2023-05-13T13:54:04;6.13;;;3.17;;
46675;SDS011;32412;51.478;5.694;2023-05-13T13:56:31;4.82;;;2.90;;
46675;SDS011;32412;51.478;5.694;2023-05-13T13:58:56;23.92;;;14.43;;
46675;SDS011;32412;51.478;5.694;2023-05-13T14:01:22;16.40;;;9.35;;
46675;SDS011;32412;51.478;5.694;2023-05-13T14:03:48;137.23;;;76.15;;
46675;SDS011;32412;51.478;5.694;2023-05-13T14:06:14;83.07;;;57.67;;
46675;SDS011;32412;51.478;5.694;2023-05-13T14:08:40;24.48;;;13.13;;
46675;SDS011;32412;51.478;5.694;2023-05-13T14:11:06;42.63;;;28.90;;
46675;SDS011;32412;51.478;5.694;2023-05-13T14:13:31;10.95;;;8.70;;
46675;SDS011;32412;51.478;5.694;2023-05-13T14:15:57;6.65;;;4.82;;
46675;SDS011;32412;51.478;5.694;2023-05-13T14:18:22;5.60;;;4.82;;
46675;SDS011;32412;51.478;5.694;2023-05-13T14:20:48;5.35;;;4.82;;
46675;SDS011;32412;51.478;5.694;2023-05-13T14:23:14;3.90;;;3.42;;
46675;SDS011;32412;51.478;5.694;2023-05-13T14:25:41;11.80;;;5.50;;
46675;SDS011;32412;51.478;5.694;2023-05-13T14:28:07;3.97;;;3.40;;
46675;SDS011;32412;51.478;5.694;2023-05-13T14:30:34;7.50;;;4.53;;
46675;SDS011;32412;51.478;5.694;2023-05-13T14:32:59;5.63;;;3.15;;
46675;SDS011;32412;51.478;5.694;2023-05-13T14:35:25;6.05;;;3.17;;
46675;SDS011;32412;51.478;5.694;2023-05-13T14:37:51;3.40;;;3.10;;
46675;SDS011;32412;51.478;5.694;2023-05-13T14:40:16;5.13;;;2.85;;
46675;SDS011;32412;51.478;5.694;2023-05-13T14:42:42;3.33;;;3.00;;
46675;SDS011;32412;51.478;5.694;2023-05-13T14:45:08;6.00;;;3.40;;
46675;SDS011;32412;51.478;5.694;2023-05-13T14:47:34;4.82;;;2.53;;
46675;SDS011;32412;51.478;5.694;2023-05-13T14:49:59;4.53;;;2.88;;
46675;SDS011;32412;51.478;5.694;2023-05-13T14:52:25;6.00;;;3.08;;
46675;SDS011;32412;51.478;5.694;2023-05-13T14:54:51;8.60;;;3.50;;
46675;SDS011;32412;51.478;5.694;2023-05-13T14:57:17;2.88;;;2.58;;
46675;SDS011;32412;51.478;5.694;2023-05-13T14:59:43;3.72;;;3.25;;
46675;SDS011;32412;51.478;5.694;2023-05-13T15:02:08;4.30;;;2.60;;
46675;SDS011;32412;51.478;5.694;2023-05-13T15:04:34;6.10;;;3.22;;
46675;SDS011;32412;51.478;5.694;2023-05-13T15:07:00;6.82;;;3.22;;